Flight Track Log - Related Links

Times and Time Zones

All times are in EDT time to prevent confusion due to time zone crossing. See the FLG3729 flight status page for this flight to view local times or setup timezone preferences in your user account.

Time Position Orientation Groundspeed Altitude Reporting Facility
EDT Latitude Longitude Course Direction KTS km/h feet Rate Location/Type
Mon 05:53:24 42.7319 -73.8081 205° Southwest 141 261 1.200  Level Boston Center
Mon 05:54:31 42.6878 -73.8356 205° Southwest 211 391 3.200 1.986 Climbing Boston Center
Mon 05:55:49 42.7533 -73.9244 315° West 321 594 6.000 2.609 Climbing Boston Center
Mon 05:56:49 42.8150 -73.9967 319° Northwest 308 570 9.200 2.550 Climbing Boston Center
Mon 05:57:49 42.8786 -74.0664 321° Northwest 297 550 11.100 1.800 Climbing Boston Center
Mon 05:58:49 42.9103 -74.1750 292° West 307 568 12.800 1.850 Climbing Boston Center
Mon 05:59:49 42.9250 -74.3031 279° West 328 607 14.800 1.800 Climbing Boston Center
Mon 06:00:49 42.9417 -74.4283 280° West 335 621 16.400 1.550 Climbing Boston Center
Mon 06:01:49 42.9600 -74.5567 281° West 340 629 17.900 1.300 Climbing Boston Center
Mon 06:02:49 42.9764 -74.6933 279° West 357 661 19.000 1.050 Climbing Boston Center
Mon 06:03:49 42.9942 -74.8331 280° West 363 673 20.000 1.000 Climbing Boston Center
Mon 06:04:49 43.0100 -74.9758 279° West 375 695 21.000 950 Climbing Boston Center
Mon 06:05:49 43.0297 -75.1186 281° West 380 703 21.900 800 Climbing Boston Center
Mon 06:06:49 43.0489 -75.2644 280° West 386 715 22.600 700 Climbing Boston Center
Mon 06:07:49 43.0681 -75.4158 280° West 394 729 23.300 750 Climbing Boston Center
Mon 06:08:49 43.0869 -75.5675 280° West 399 739 24.100 750 Climbing Boston Center
Mon 06:09:49 43.1056 -75.7222 279° West 409 758 24.800 700 Climbing Boston Center
Mon 06:10:49 43.1219 -75.8767 278° West 409 758 25.500 700 Climbing Boston Center
Mon 06:11:49 43.1422 -76.0286 280° West 409 758 26.200 606 Climbing Boston Center
Mon 06:13:57 43.1475 -76.3428 271° West 401 742 27.400 543 Climbing Cleveland Center
Mon 06:14:57 43.1344 -76.5003 264° West 407 753 27.900 300 Climbing Cleveland Center
Mon 06:15:57 43.1208 -76.6550 263° West 412 763 28.000 50 Climbing Cleveland Center
Mon 06:16:57 43.1075 -76.8150 264° West 412 763 28.000  Level Cleveland Center
Mon 06:17:57 43.0939 -76.9781 264° West 424 785 28.000  Level Cleveland Center
Mon 06:18:57 43.0781 -77.1381 262° West 431 798 28.000  Level Cleveland Center
Mon 06:19:57 43.0619 -77.3039 262° West 436 808 28.000  Level Cleveland Center
Mon 06:20:57 43.0478 -77.4667 263° West 436 808 28.000  Level Cleveland Center
Mon 06:21:57 43.0311 -77.6294 262° West 436 808 28.000  Level Cleveland Center
Mon 06:22:57 43.0164 -77.7892 263° West 436 808 28.000  Level Cleveland Center
Mon 06:23:57 42.9992 -77.9517 262° West 436 808 28.000  Level Cleveland Center
Mon 06:24:57 42.9842 -78.1169 263° West 436 808 28.000  Level Cleveland Center
Mon 06:25:57 42.9667 -78.2822 262° West 436 808 28.000  Level Cleveland Center
Mon 06:26:57 42.9511 -78.4472 263° West 436 808 28.000  Level Cleveland Center
Mon 06:27:57 42.9333 -78.6125 262° West 442 819 28.000  Level Cleveland Center
Mon 06:28:57 42.9131 -78.7747 260° West 447 827 28.000  Level Cleveland Center
Mon 06:29:57 42.8883 -78.9369 258° West 447 827 28.000  Level Cleveland Center
Mon 06:30:57 42.8633 -79.1017 258° West 447 827 28.000  Level Cleveland Center
Mon 06:31:57 42.8383 -79.2694 259° West 447 827 28.000  Level Cleveland Center
Mon 06:32:57 42.8131 -79.4511 259° West 456 845 28.000  Level Cleveland Center
Mon 06:33:57 42.7875 -79.6186 258° West 451 835 28.000  Level Cleveland Center
Mon 06:34:57 42.7617 -79.7828 258° West 451 835 28.000  Level Cleveland Center
Mon 06:35:57 42.7503 -79.9500 265° West 451 835 28.000  Level Cleveland Center
Mon 06:36:57 42.7406 -80.0997 265° West 451 835 28.000  Level Cleveland Center
Mon 06:37:57 42.7328 -80.2722 267° West 445 824 28.000  Level Cleveland Center
Mon 06:38:57 42.7247 -80.4361 266° West 440 814 28.000  Level Cleveland Center
Mon 06:39:57 42.7208 -80.6086 268° West 450 834 28.000  Level Cleveland Center
Mon 06:40:57 42.7100 -80.7753 265° West 450 834 28.000 -100 Level Cleveland Center
Mon 06:41:57 42.6994 -80.9447 265° West 455 843 27.800 -650 Descending Cleveland Center
Mon 06:42:57 42.6797 -81.1256 262° West 455 843 26.700 -1.050 Descending Cleveland Center
Mon 06:43:57 42.6603 -81.2947 261° West 455 843 25.700 -1.000 Descending Cleveland Center
Mon 06:44:57 42.6403 -81.4581 261° West 450 834 24.700 -1.000 Descending Cleveland Center
Mon 06:45:57 42.6222 -81.6217 262° West 450 834 23.700 -900 Descending Cleveland Center
Mon 06:46:57 42.6064 -81.7594 261° West 450 834 22.900 -1.400 Descending Cleveland Center
Mon 06:47:57 42.5836 -81.9367 260° West 450 834 20.900 -2.250 Descending Cleveland Center
Mon 06:48:57 42.5628 -82.0914 260° West 436 808 18.400 -2.655 Descending Cleveland Center
Mon 06:49:50 42.5461 -82.2431 262° West 403 747 15.900 -2.400 Descending Cleveland Center
Mon 06:50:57 42.5272 -82.3864 260° West 408 756 13.600 -2.133 Descending Cleveland Center
Mon 06:51:20 42.5219 -82.4567 264° West 383 710 12.700 -1.500 Descending Cleveland Center
Mon 06:51:57 42.5083 -82.5294 256° West 403 747 12.100 -764 Descending Cleveland Center
Mon 06:52:15 42.4950 -82.5797 250° West 380 703 12.000 -100 Descending Cleveland Center
Mon 06:52:57 42.4644 -82.6575 242° Southwest 384 711 12.000 90 Level Cleveland Center
Mon 06:53:22 42.4422 -82.7328 248° West 381 705 12.100  Climbing Cleveland Center
Mon 06:53:57 42.4203 -82.7856 241° Southwest 384 711 12.000  Descending Cleveland Center
Mon 06:54:22 42.3958 -82.8606 246° West 382 708 12.100  Climbing Cleveland Center
Mon 06:54:57 42.3739 -82.9161 242° Southwest 384 711 12.000 -90 Descending Cleveland Center
Mon 06:55:29 42.3472 -82.9964 246° West 381 705 12.000  Level Cleveland Center
Mon 06:55:57 42.3294 -83.0492 246° West 384 711 12.000  Level Cleveland Center
Mon 06:56:18 42.3136 -83.1131 251° West 382 708 12.000  Level Cleveland Center
Mon 06:56:57 42.2953 -83.1825 250° West 379 702 12.000  Level Cleveland Center
Mon 06:57:18 42.2814 -83.2467 254° West 361 668 12.000  Level Cleveland Center
Mon 06:57:57 42.2633 -83.3075 248° West 368 681 12.000  Level Cleveland Center
Mon 06:58:19 42.2494 -83.3658 252° West 329 610 12.000 -200 Level Cleveland Center
Mon 06:58:57 42.2356 -83.4214 251° West 335 621 11.800 -985 Descending Cleveland Center
Mon 06:59:26 42.2153 -83.4794 245° Southwest 291 539 10.900 -2.096 Descending Cleveland Center
Mon 07:00:20 42.1536 -83.5242 208° Southwest 267 494 8.900 -2.362 Descending Cleveland Center
Mon 07:01:33 42.0811 -83.5853 212° Southwest 252 467 5.900 -1.929 Descending Cleveland Center
Mon 07:02:40 42.0300 -83.5492 152° Southeast 218 404 4.400 -1.036 Descending Cleveland Center
Mon 07:03:23 42.0478 -83.5053 61° Northeast 203 377 4.000 -558 Descending Cleveland Center

Login

Don't have an account? Register now (free) for customized features, flight alerts, and more!